Time;durP1;ratioP1;P1;durP2;ratioP2;P2;SDS_P1;SDS_P2;PMS_P1;PMS_P2;Temp;Humidity;BMP_temperature;BMP_pressure;BME280_temperature;BME280_humidity;BME280_pressure;Samples;Min_cycle;Max_cycle;Signal;HPM_P1;HPM_P2
2023/04/25 00:01:57;;;;;;;16.05;9.88;;;;;;;6.82;88.15;100995.69;5092641;28;20028;-57
2023/04/25 00:04:22;;;;;;;21.02;8.18;;;;;;;6.82;88.31;100995.69;5092523;28;20024;-57
2023/04/25 00:06:52;;;;;;;18.58;9.70;;;;;;;6.82;88.48;100995.69;5092396;28;20034;-57
2023/04/25 00:09:17;;;;;;;18.67;9.90;;;;;;;6.78;89.03;100991.44;5092913;28;20035;-57
2023/04/25 00:11:45;;;;;;;17.67;8.00;;;;;;;6.89;88.79;101005.97;5091477;28;20032;-58
2023/04/25 00:14:10;;;;;;;14.13;8.45;;;;;;;6.88;88.21;101012.16;5091085;28;20453;-57
2023/04/25 00:16:36;;;;;;;14.88;9.48;;;;;;;6.84;88.56;101006.16;5092475;28;20020;-58
2023/04/25 00:19:02;;;;;;;21.58;8.02;;;;;;;6.92;87.84;101011.13;5092273;28;20016;-57
2023/04/25 00:21:28;;;;;;;18.60;9.68;;;;;;;6.92;87.36;101021.69;5092180;28;20028;-57
2023/04/25 00:23:54;;;;;;;19.70;9.88;;;;;;;6.82;87.95;101013.28;5090981;28;20111;-57
2023/04/25 00:26:20;;;;;;;15.20;8.20;;;;;;;6.76;87.43;101017.06;5092399;28;20027;-57
2023/04/25 00:28:47;;;;;;;16.75;9.27;;;;;;;6.73;88.21;101011.91;5092584;28;20052;-57
2023/04/25 00:31:12;;;;;;;14.60;8.68;;;;;;;6.72;88.87;101012.84;5091230;28;20035;-57
2023/04/25 00:33:37;;;;;;;18.23;9.25;;;;;;;6.80;88.87;101015.16;5091077;28;20016;-57
2023/04/25 00:36:06;;;;;;;18.00;9.50;;;;;;;6.80;88.74;101008.09;5091527;28;20103;-57
2023/04/25 00:38:34;;;;;;;19.40;9.23;;;;;;;6.73;88.19;101004.00;5090979;28;20386;-57
2023/04/25 00:40:59;;;;;;;18.17;9.10;;;;;;;6.81;88.29;101007.16;5091972;28;20024;-57
2023/04/25 00:43:26;;;;;;;15.15;9.02;;;;;;;6.78;88.67;101004.66;5090569;28;20016;-57
2023/04/25 00:45:52;;;;;;;14.15;8.15;;;;;;;6.77;88.48;101002.09;5090642;28;20028;-57
2023/04/25 00:48:17;;;;;;;15.68;9.32;;;;;;;6.64;88.21;100993.84;5090696;28;20027;-57
2023/04/25 00:50:54;;;;;;;16.52;9.32;;;;;;;6.73;87.89;101006.63;5092074;28;20058;-57
2023/04/25 00:53:21;;;;;;;15.38;8.10;;;;;;;6.68;88.08;101005.16;5092084;28;20032;-57
2023/04/25 00:55:47;;;;;;;14.80;10.05;;;;;;;6.58;89.06;101007.31;5090708;28;20471;-57
2023/04/25 00:58:13;;;;;;;15.05;8.73;;;;;;;6.57;88.53;101009.09;5090778;28;20119;-57
2023/04/25 01:00:41;;;;;;;17.30;9.43;;;;;;;6.59;89.03;101012.56;5092317;28;20035;-57
2023/04/25 01:03:07;;;;;;;18.15;7.63;;;;;;;6.66;89.06;101017.56;5091662;28;20024;-57
2023/04/25 01:05:32;;;;;;;14.82;7.63;;;;;;;6.68;88.65;101018.38;5101133;28;20027;-57
2023/04/25 01:07:58;;;;;;;17.23;7.88;;;;;;;6.56;88.89;100999.47;5105568;28;20106;-57
2023/04/25 01:10:24;;;;;;;19.02;13.00;;;;;;;6.47;89.73;101007.81;5092127;28;20103;-58
2023/04/25 01:12:49;;;;;;;18.95;9.50;;;;;;;6.56;89.65;101003.91;5093869;28;20020;-58
2023/04/25 01:15:17;;;;;;;21.73;10.20;;;;;;;6.54;88.74;101008.38;5090085;28;20403;-58
2023/04/25 01:17:45;;;;;;;16.75;9.40;;;;;;;6.44;89.07;101010.59;5091821;28;20352;-57
2023/04/25 01:20:11;;;;;;;20.02;8.80;;;;;;;6.36;89.54;101010.06;5074364;28;20140;-58
2023/04/25 01:22:37;;;;;;;19.17;8.45;;;;;;;6.35;89.35;101009.19;5056342;28;20500;-58
2023/04/25 01:25:03;;;;;;;13.63;9.75;;;;;;;6.27;89.39;101006.03;5093363;28;20103;-58
2023/04/25 01:27:29;;;;;;;17.05;9.50;;;;;;;6.30;89.26;101010.31;5074971;28;20103;-58
2023/04/25 01:29:55;;;;;;;19.02;8.88;;;;;;;6.19;89.46;101018.69;5090305;28;20031;-58
2023/04/25 01:32:23;;;;;;;19.65;9.13;;;;;;;6.19;90.33;101012.53;5090520;28;20031;-57
2023/04/25 01:34:48;;;;;;;24.23;9.93;;;;;;;6.20;89.71;101019.53;5090323;28;20023;-58
2023/04/25 01:37:14;;;;;;;19.88;10.57;;;;;;;6.13;90.94;101021.59;5091243;28;20036;-58
2023/04/25 01:39:40;;;;;;;19.65;10.98;;;;;;;6.02;91.07;101007.97;5090694;28;20028;-58
2023/04/25 01:42:08;;;;;;;17.80;11.32;;;;;;;6.12;90.29;101025.16;5090357;28;20109;-57
2023/04/25 01:44:33;;;;;;;19.10;8.32;;;;;;;6.10;90.10;101019.94;5089826;28;20031;-58
2023/04/25 01:46:59;;;;;;;19.05;11.35;;;;;;;6.08;89.86;101023.56;5091278;28;20541;-57
2023/04/25 01:49:24;;;;;;;13.77;8.98;;;;;;;6.06;90.39;101021.00;5091581;28;20055;-58
2023/04/25 01:51:50;;;;;;;17.90;8.55;;;;;;;6.04;90.06;101027.25;5089730;28;20034;-57
2023/04/25 01:54:15;;;;;;;18.80;9.23;;;;;;;6.02;89.74;101010.59;5093163;28;20059;-58
2023/04/25 01:56:41;;;;;;;21.05;9.77;;;;;;;6.00;90.69;101021.25;5095256;28;20034;-57
2023/04/25 01:59:06;;;;;;;16.92;8.57;;;;;;;6.08;89.95;101029.69;5095175;28;20023;-57
2023/04/25 02:01:34;;;;;;;18.58;10.77;;;;;;;6.01;90.97;101027.38;5095016;28;20391;-57
2023/04/25 02:03:59;;;;;;;14.88;8.50;;;;;;;6.07;90.90;101029.75;5093488;28;20048;-58
2023/04/25 02:06:25;;;;;;;18.60;11.88;;;;;;;5.94;91.52;101015.34;5094744;28;20098;-58
2023/04/25 02:08:50;;;;;;;20.13;8.35;;;;;;;6.07;90.79;101038.53;5095174;28;20038;-58
2023/04/25 02:11:15;;;;;;;18.08;11.57;;;;;;;6.11;90.98;101039.25;5095069;28;20032;-57
2023/04/25 02:13:43;;;;;;;17.77;9.18;;;;;;;6.16;91.69;101047.00;5093720;28;20052;-57
2023/04/25 02:16:08;;;;;;;13.82;8.93;;;;;;;6.23;90.89;101046.66;5093695;28;20028;-58
2023/04/25 02:18:34;;;;;;;20.30;11.45;;;;;;;6.16;91.27;101045.22;5093354;28;20081;-57
2023/04/25 02:21:00;;;;;;;21.98;11.82;;;;;;;6.14;91.39;101047.06;5107353;28;20392;-57
2023/04/25 02:23:26;;;;;;;16.33;8.48;;;;;;;6.24;90.85;101047.56;5111698;28;20038;-57
2023/04/25 02:25:55;;;;;;;23.27;12.80;;;;;;;6.09;91.47;101041.97;5113402;28;20036;-57
2023/04/25 02:28:20;;;;;;;12.60;8.05;;;;;;;6.23;90.53;101038.75;5113271;28;20451;-57
2023/04/25 02:30:45;;;;;;;14.15;8.55;;;;;;;6.15;90.67;101048.78;5112222;28;20032;-57
2023/04/25 02:33:11;;;;;;;17.08;9.80;;;;;;;6.04;91.14;101040.44;5113276;28;20034;-57
2023/04/25 02:35:36;;;;;;;16.75;11.98;;;;;;;5.96;90.61;101045.19;5113185;28;20489;-57
2023/04/25 02:38:04;;;;;;;14.27;7.22;;;;;;;5.97;90.73;101037.22;5114572;28;20027;-57
2023/04/25 02:40:30;;;;;;;20.33;10.85;;;;;;;5.97;90.88;101047.78;5113239;28;20502;-57
2023/04/25 02:42:55;;;;;;;18.50;10.30;;;;;;;5.85;91.21;101048.22;5111659;28;20060;-58
2023/04/25 02:45:23;;;;;;;17.38;8.93;;;;;;;5.95;91.02;101054.03;5109569;28;20514;-57
2023/04/25 02:47:48;;;;;;;21.73;11.95;;;;;;;5.78;91.18;101052.88;5105548;28;20380;-58
2023/04/25 02:50:14;;;;;;;22.33;9.68;;;;;;;5.85;91.67;101049.09;5113107;28;20029;-58
2023/04/25 02:52:39;;;;;;;15.85;9.43;;;;;;;5.88;91.48;101048.09;5113259;28;20037;-58
2023/04/25 02:55:05;;;;;;;21.15;9.88;;;;;;;5.85;91.73;101054.38;5109184;28;20035;-58
2023/04/25 02:57:30;;;;;;;19.77;12.23;;;;;;;5.83;90.96;101042.16;5111180;28;20122;-57
2023/04/25 02:59:56;;;;;;;26.65;13.90;;;;;;;5.75;91.72;101044.22;5111727;28;20115;-57
2023/04/25 03:02:21;;;;;;;15.68;8.60;;;;;;;5.82;91.45;101040.41;5111379;28;20470;-58
2023/04/25 03:04:46;;;;;;;22.55;12.70;;;;;;;5.73;91.46;101048.72;5112076;28;20367;-57
2023/04/25 03:07:12;;;;;;;14.00;9.65;;;;;;;5.79;91.57;101049.31;5111004;28;20027;-58
2023/04/25 03:09:37;;;;;;;22.83;13.40;;;;;;;5.62;91.55;101049.16;5110888;28;20492;-58
2023/04/25 03:12:03;;;;;;;21.98;9.38;;;;;;;5.83;91.13;101050.06;5109288;28;20046;-58
2023/04/25 03:14:31;;;;;;;31.13;11.57;;;;;;;5.80;91.90;101050.19;5096175;28;20044;-58
2023/04/25 03:16:57;;;;;;;16.98;9.10;;;;;;;5.82;91.52;101050.97;5107602;28;20052;-58
2023/04/25 03:19:23;;;;;;;16.10;9.73;;;;;;;5.80;91.82;101055.47;5109609;28;20028;-58
2023/04/25 03:21:48;;;;;;;21.88;13.73;;;;;;;5.70;91.88;101050.53;5111479;28;20066;-58
2023/04/25 03:24:14;;;;;;;21.35;10.70;;;;;;;5.84;92.29;101054.41;5111151;28;20375;-57
2023/04/25 03:26:39;;;;;;;23.20;13.95;;;;;;;5.80;91.93;101058.13;5112174;28;20046;-57
2023/04/25 03:29:07;;;;;;;13.52;7.95;;;;;;;5.88;92.07;101048.97;5110312;28;20118;-58
2023/04/25 03:31:32;;;;;;;25.10;11.18;;;;;;;5.87;92.19;101057.78;5111680;27;20239;-57
2023/04/25 03:34:00;;;;;;;26.23;13.77;;;;;;;5.83;92.14;101058.84;5110972;28;20157;-57
2023/04/25 03:36:25;;;;;;;17.88;8.70;;;;;;;5.95;92.36;101056.66;5110339;28;20031;-57
2023/04/25 03:38:53;;;;;;;22.13;12.32;;;;;;;5.91;92.38;101064.69;5109144;28;20028;-58
2023/04/25 03:41:19;;;;;;;18.63;8.10;;;;;;;5.99;91.88;101053.81;5091681;28;20019;-57
2023/04/25 03:43:44;;;;;;;20.17;9.77;;;;;;;6.03;91.96;101063.38;5093152;28;20016;-57
2023/04/25 03:46:10;;;;;;;24.35;12.27;;;;;;;6.03;91.35;101062.47;5092931;28;20036;-57
2023/04/25 03:48:35;;;;;;;23.10;9.88;;;;;;;5.96;91.50;101046.03;5093348;28;20020;-57
2023/04/25 03:51:01;;;;;;;18.55;12.80;;;;;;;5.97;92.37;101055.69;5092793;28;20056;-57
2023/04/25 03:53:26;;;;;;;16.42;10.65;;;;;;;6.03;91.63;101050.16;5092006;28;20063;-57
2023/04/25 03:55:52;;;;;;;21.13;13.00;;;;;;;5.97;92.00;101065.38;5092864;28;20035;-57
2023/04/25 03:58:17;;;;;;;20.75;8.48;;;;;;;6.08;92.34;101064.00;5092871;28;20020;-57
2023/04/25 04:00:42;;;;;;;14.18;9.10;;;;;;;6.03;92.16;101060.72;5092742;28;20491;-57
2023/04/25 04:03:10;;;;;;;21.38;9.55;;;;;;;6.08;91.64;101074.56;5092956;28;20074;-57
2023/04/25 04:05:37;;;;;;;17.98;12.27;;;;;;;5.99;92.00;101071.44;5092974;28;20023;-57
2023/04/25 04:08:05;;;;;;;16.65;8.63;;;;;;;6.11;92.29;101071.81;5090990;28;20235;-58
2023/04/25 04:10:30;;;;;;;16.90;8.02;;;;;;;6.06;91.81;101073.78;5092770;28;20024;-57
2023/04/25 04:12:56;;;;;;;19.98;8.98;;;;;;;6.07;91.99;101079.94;5092463;28;20016;-57
2023/04/25 04:15:21;;;;;;;17.45;9.25;;;;;;;6.11;91.81;101081.50;5092512;28;20081;-57
2023/04/25 04:17:49;;;;;;;18.35;11.07;;;;;;;6.00;91.98;101068.78;5090201;28;20036;-57
2023/04/25 04:20:14;;;;;;;25.70;8.77;;;;;;;6.10;91.50;101080.66;5091256;28;20031;-57
2023/04/25 04:22:39;;;;;;;24.95;11.95;;;;;;;6.02;91.77;101092.44;5092329;28;20481;-57
2023/04/25 04:25:05;;;;;;;22.80;9.25;;;;;;;6.07;92.08;101091.34;5092182;28;20047;-57
2023/04/25 04:27:32;;;;;;;19.98;11.32;;;;;;;5.90;91.82;101080.56;5092317;28;20024;-57
2023/04/25 04:29:57;;;;;;;13.95;9.07;;;;;;;6.00;92.55;101087.25;5091043;28;20034;-57
2023/04/25 04:32:23;;;;;;;28.50;11.25;;;;;;;5.93;92.43;101088.41;5092334;28;20484;-57
2023/04/25 04:34:49;;;;;;;15.20;8.48;;;;;;;6.09;92.96;101099.22;5092243;28;20024;-57
2023/04/25 04:37:14;;;;;;;23.70;11.70;;;;;;;5.97;92.75;101091.75;5091721;28;20048;-57
2023/04/25 04:39:42;;;;;;;27.85;12.70;;;;;;;5.96;91.55;101096.19;5091204;28;20031;-57
2023/04/25 04:42:08;;;;;;;25.23;10.13;;;;;;;6.04;91.32;101090.63;5106266;28;20028;-57
2023/04/25 04:44:34;;;;;;;18.80;8.98;;;;;;;6.05;91.26;101094.97;5090709;28;20390;-57
2023/04/25 04:46:59;;;;;;;22.85;10.93;;;;;;;5.96;92.05;101105.91;5090726;28;20373;-57
2023/04/25 04:49:25;;;;;;;20.38;10.05;;;;;;;5.94;92.27;101083.97;5090707;28;20085;-57
2023/04/25 04:51:50;;;;;;;22.77;11.75;;;;;;;6.02;92.62;101105.66;5090139;28;20028;-57
2023/04/25 04:54:16;;;;;;;19.10;8.05;;;;;;;6.12;91.85;101109.66;5091906;28;20024;-57
2023/04/25 04:56:44;;;;;;;17.60;8.48;;;;;;;6.11;92.53;101113.19;5090842;28;20028;-57
2023/04/25 04:59:10;;;;;;;31.45;11.35;;;;;;;6.01;92.13;101111.84;5094974;28;20020;-57
2023/04/25 05:01:36;;;;;;;19.67;10.48;;;;;;;5.98;92.65;101119.91;5090588;28;20024;-57
2023/04/25 05:04:03;;;;;;;21.20;10.70;;;;;;;6.01;92.71;101119.78;5091883;28;20107;-57
2023/04/25 05:06:29;;;;;;;21.48;12.60;;;;;;;5.91;92.48;101125.41;5091522;28;20027;-57
2023/04/25 05:08:55;;;;;;;18.92;8.75;;;;;;;6.06;92.37;101129.25;5091310;28;20077;-58
2023/04/25 05:11:22;;;;;;;18.45;9.65;;;;;;;6.07;92.20;101122.19;5090495;28;20429;-57
2023/04/25 05:13:47;;;;;;;19.10;12.68;;;;;;;6.08;92.25;101135.31;5090468;28;20047;-58
2023/04/25 05:16:13;;;;;;;23.83;13.00;;;;;;;6.07;92.42;101136.22;5092015;28;20015;-57
2023/04/25 05:18:39;;;;;;;19.55;8.95;;;;;;;6.26;92.21;101149.53;5090782;28;20016;-58
2023/04/25 05:21:05;;;;;;;23.23;12.38;;;;;;;6.21;92.17;101138.34;5091173;28;20020;-58
2023/04/25 05:23:32;;;;;;;22.90;11.27;;;;;;;6.31;92.61;101152.00;5092049;28;20028;-58
2023/04/25 05:25:57;;;;;;;27.58;13.60;;;;;;;6.20;91.69;101154.22;5091450;28;20064;-57
2023/04/25 05:28:22;;;;;;;23.77;12.52;;;;;;;6.27;91.47;101164.50;5093357;28;20060;-57
2023/04/25 05:30:48;;;;;;;18.27;9.52;;;;;;;6.32;91.67;101157.25;5096030;28;20016;-58
2023/04/25 05:33:14;;;;;;;21.98;10.98;;;;;;;6.36;92.42;101156.19;5095618;28;20467;-57
2023/04/25 05:35:39;;;;;;;27.25;12.60;;;;;;;6.34;91.84;101160.66;5095935;28;20045;-58
2023/04/25 05:38:07;;;;;;;24.63;12.55;;;;;;;6.37;92.65;101147.34;5094836;28;20020;-58
2023/04/25 05:40:33;;;;;;;25.52;11.13;;;;;;;6.52;91.84;101160.84;5094315;28;20028;-58
2023/04/25 05:42:58;;;;;;;16.88;10.65;;;;;;;6.54;92.02;101159.84;5095237;28;20020;-58
2023/04/25 05:45:23;;;;;;;22.48;12.23;;;;;;;6.56;91.78;101160.66;5095538;28;20024;-58
2023/04/25 05:47:49;;;;;;;25.35;11.95;;;;;;;6.47;90.81;101171.63;5095428;28;20584;-57
2023/04/25 05:50:15;;;;;;;25.35;14.70;;;;;;;6.50;91.49;101167.97;5094174;28;20034;-58
2023/04/25 05:52:43;;;;;;;22.55;12.52;;;;;;;6.49;91.08;101167.09;5094725;28;20035;-58
2023/04/25 05:55:09;;;;;;;23.98;14.43;;;;;;;6.48;91.34;101177.75;5094732;28;20055;-58
2023/04/25 05:57:35;;;;;;;18.25;9.82;;;;;;;6.64;91.07;101184.13;5097423;28;20058;-57
2023/04/25 06:00:01;;;;;;;25.00;12.32;;;;;;;6.67;91.10;101186.63;5108214;28;20039;-58
2023/04/25 06:02:26;;;;;;;20.67;11.68;;;;;;;6.64;91.34;101189.41;5112251;28;20027;-57
2023/04/25 06:04:52;;;;;;;24.25;11.70;;;;;;;6.72;90.72;101191.75;5097788;28;20051;-57
2023/04/25 06:07:18;;;;;;;25.40;10.70;;;;;;;6.71;88.99;101193.53;5093153;28;20359;-58
2023/04/25 06:09:44;;;;;;;21.33;10.63;;;;;;;6.76;88.87;101191.53;5094958;28;20020;-58
2023/04/25 06:12:10;;;;;;;24.15;11.18;;;;;;;6.86;88.11;101204.38;5097041;28;20530;-58
2023/04/25 06:14:35;;;;;;;20.38;9.90;;;;;;;6.87;87.51;101211.38;5109899;28;20036;-57
2023/04/25 06:17:06;;;;;;;18.35;8.65;;;;;;;6.88;87.68;101199.88;5113526;28;20387;-58
2023/04/25 06:19:32;;;;;;;19.00;8.20;;;;;;;6.91;87.26;101210.31;5103100;28;20020;-57
2023/04/25 06:21:58;;;;;;;26.27;10.32;;;;;;;6.87;86.24;101214.03;5113131;28;20023;-58
2023/04/25 06:24:23;;;;;;;16.52;8.38;;;;;;;6.80;86.84;101219.56;5113777;28;20042;-57
2023/04/25 06:26:48;;;;;;;18.23;9.00;;;;;;;6.85;87.13;101219.38;5111127;28;20437;-57
2023/04/25 06:29:14;;;;;;;17.48;9.30;;;;;;;6.92;87.59;101218.22;5113627;28;20106;-57
2023/04/25 06:31:41;;;;;;;20.65;8.07;;;;;;;7.09;86.09;101213.97;5113881;28;20021;-57
2023/04/25 06:34:07;;;;;;;16.85;8.50;;;;;;;7.26;83.00;101212.34;5099785;28;20073;-57
2023/04/25 06:36:32;;;;;;;14.57;7.57;;;;;;;7.36;81.86;101212.78;5097231;28;20440;-58
2023/04/25 06:38:57;;;;;;;16.42;7.57;;;;;;;7.45;78.20;101230.06;5113056;28;20019;-58
2023/04/25 06:41:23;;;;;;;15.60;8.10;;;;;;;7.62;78.47;101224.88;5112822;28;20069;-57
2023/04/25 06:43:48;;;;;;;19.50;7.13;;;;;;;7.76;77.38;101232.19;5109595;28;20076;-58
2023/04/25 06:46:13;;;;;;;15.23;7.50;;;;;;;7.93;75.72;101234.94;5102787;28;20031;-57
2023/04/25 06:48:39;;;;;;;14.60;7.15;;;;;;;7.86;73.01;101240.59;5094481;28;20017;-57
2023/04/25 06:51:05;;;;;;;12.98;7.15;;;;;;;8.03;73.97;101245.09;5089951;28;20055;-57
2023/04/25 06:53:32;;;;;;;12.68;7.50;;;;;;;8.12;72.55;101247.34;5091602;28;20085;-57
2023/04/25 06:55:58;;;;;;;19.17;8.68;;;;;;;8.11;72.20;101248.25;5109406;28;20565;-57
2023/04/25 06:58:23;;;;;;;15.57;6.65;;;;;;;8.23;71.36;101247.69;5112587;28;20102;-57
2023/04/25 07:00:53;;;;;;;10.77;7.40;;;;;;;8.28;72.50;101242.19;5109687;28;20470;-57
2023/04/25 07:03:19;;;;;;;15.98;6.35;;;;;;;8.44;71.87;101223.78;5096118;28;20024;-57
2023/04/25 07:05:45;;;;;;;14.15;8.75;;;;;;;8.48;70.14;101247.44;5092765;28;20035;-58
2023/04/25 07:08:11;;;;;;;11.30;8.25;;;;;;;8.43;68.35;101246.78;5092160;28;20486;-57
2023/04/25 07:10:38;;;;;;;13.35;7.90;;;;;;;8.56;68.79;101239.97;5092869;28;20046;-57
2023/04/25 07:13:04;;;;;;;16.17;7.88;;;;;;;8.64;69.18;101236.91;5092427;28;20052;-57
2023/04/25 07:15:29;;;;;;;12.40;8.23;;;;;;;8.65;67.69;101246.63;5093787;28;20455;-57
2023/04/25 07:17:55;;;;;;;14.90;7.63;;;;;;;8.78;67.36;101237.13;5093418;28;20046;-58
2023/04/25 07:20:20;;;;;;;9.25;6.68;;;;;;;8.97;66.65;101246.81;5093720;28;20105;-57
2023/04/25 07:22:46;;;;;;;12.95;7.38;;;;;;;8.98;65.63;101265.31;5091795;28;20398;-57
2023/04/25 07:25:13;;;;;;;12.02;7.90;;;;;;;9.09;66.43;101264.78;5093730;28;20028;-57
2023/04/25 07:27:39;;;;;;;13.85;7.68;;;;;;;9.16;65.35;101270.63;5093712;28;20028;-58
2023/04/25 07:30:05;;;;;;;15.15;8.15;;;;;;;9.41;65.62;101267.56;5093386;28;20490;-58
2023/04/25 07:32:32;;;;;;;14.02;7.50;;;;;;;9.50;65.47;101267.97;5093039;28;20024;-58
2023/04/25 07:35:01;;;;;;;16.80;7.93;;;;;;;9.57;63.49;101287.09;5093459;28;20020;-57
2023/04/25 07:37:27;;;;;;;15.68;7.97;;;;;;;9.33;63.20;101274.16;5092645;28;20028;-57
2023/04/25 07:39:52;;;;;;;13.93;7.25;;;;;;;9.27;64.24;101284.22;5093273;28;20027;-58
2023/04/25 07:42:17;;;;;;;10.38;7.50;;;;;;;9.14;63.58;101283.09;5093201;28;20047;-57
2023/04/25 07:44:43;;;;;;;12.77;7.22;;;;;;;8.96;61.80;101285.75;5092028;28;20082;-58
2023/04/25 07:47:09;;;;;;;9.93;6.90;;;;;;;8.82;63.67;101298.81;5092591;28;20030;-57
2023/04/25 07:49:39;;;;;;;11.27;7.32;;;;;;;8.66;63.15;101304.00;5091976;28;20058;-58
2023/04/25 07:52:11;;;;;;;14.20;7.13;;;;;;;8.65;64.42;101299.66;5092651;28;20103;-57
2023/04/25 07:54:36;;;;;;;14.57;8.07;;;;;;;8.84;65.09;101304.91;5091873;28;20028;-57
2023/04/25 07:57:02;;;;;;;11.48;7.63;;;;;;;8.93;65.34;101304.47;5092986;28;20039;-57
2023/04/25 07:59:28;;;;;;;11.95;7.18;;;;;;;8.67;62.31;101312.81;5092718;28;20045;-57
2023/04/25 08:01:53;;;;;;;13.82;7.22;;;;;;;8.58;64.20;101309.66;5091559;28;20035;-58
2023/04/25 08:04:19;;;;;;;10.32;7.57;;;;;;;8.40;65.08;101316.69;5091462;28;20039;-57
2023/04/25 08:06:45;;;;;;;13.25;8.52;;;;;;;8.48;65.15;101319.00;5092303;28;20053;-57
2023/04/25 08:09:10;;;;;;;12.02;8.02;;;;;;;8.51;65.90;101310.91;5092938;28;20118;-57
2023/04/25 08:11:36;;;;;;;14.38;8.35;;;;;;;8.78;65.11;101321.13;5092729;28;20150;-57
2023/04/25 08:14:01;;;;;;;15.95;7.80;;;;;;;8.80;65.33;101320.13;5092711;28;20564;-57
2023/04/25 08:16:27;;;;;;;13.57;7.93;;;;;;;8.77;65.71;101319.41;5092308;28;20024;-57
2023/04/25 08:18:58;;;;;;;16.92;7.95;;;;;;;8.62;64.70;101324.50;5091322;28;20394;-57
2023/04/25 08:21:24;;;;;;;15.27;7.15;;;;;;;8.48;65.65;101328.75;5090752;28;20035;-58
2023/04/25 08:23:49;;;;;;;13.20;7.25;;;;;;;8.43;66.23;101334.25;5091302;28;20228;-57
2023/04/25 08:26:15;;;;;;;16.30;8.05;;;;;;;8.51;66.63;101331.25;5091084;28;20101;-57
2023/04/25 08:28:40;;;;;;;17.58;9.05;;;;;;;8.48;68.10;101342.00;5091274;28;20443;-57
2023/04/25 08:31:08;;;;;;;17.98;8.23;;;;;;;8.71;67.74;101347.09;5091959;28;20031;-57
2023/04/25 08:33:33;;;;;;;15.77;7.68;;;;;;;8.86;67.29;101342.84;5091042;28;20394;-58
2023/04/25 08:35:59;;;;;;;11.00;7.43;;;;;;;9.15;67.04;101353.81;5091845;28;20032;-58
2023/04/25 08:38:24;;;;;;;17.75;7.20;;;;;;;9.17;64.39;101359.91;5092226;28;20466;-57
2023/04/25 08:40:53;;;;;;;12.55;6.88;;;;;;;9.20;64.64;101368.56;5092373;28;20031;-57
2023/04/25 08:43:23;;;;;;;14.68;7.80;;;;;;;9.21;63.74;101354.41;5090869;28;20028;-57
2023/04/25 08:45:49;;;;;;;16.52;7.85;;;;;;;9.16;63.91;101361.72;5092026;28;20036;-57
2023/04/25 08:48:19;;;;;;;14.07;7.75;;;;;;;9.33;62.16;101364.41;5091967;28;20387;-58
2023/04/25 08:50:53;;;;;;;16.92;7.80;;;;;;;9.55;64.00;101369.47;5091946;28;20021;-57
2023/04/25 08:53:25;;;;;;;16.73;7.65;;;;;;;9.68;63.75;101377.72;5091867;28;20494;-58
2023/04/25 08:55:52;;;;;;;11.93;6.95;;;;;;;9.59;62.08;101369.31;5092100;28;20102;-58
2023/04/25 08:58:18;;;;;;;13.13;6.68;;;;;;;9.68;63.87;101384.81;5090761;28;20034;-57
2023/04/25 09:00:45;;;;;;;11.82;6.75;;;;;;;9.64;62.23;101380.59;5091627;28;20447;-57
2023/04/25 09:03:11;;;;;;;12.18;6.97;;;;;;;9.68;61.57;101390.13;5091503;28;20107;-58
2023/04/25 09:05:36;;;;;;;11.88;6.93;;;;;;;9.72;60.17;101389.03;5074008;28;20150;-58
2023/04/25 09:08:02;;;;;;;14.48;7.10;;;;;;;9.68;59.08;101406.91;5091520;28;20028;-58
2023/04/25 09:10:28;;;;;;;13.48;7.13;;;;;;;9.73;60.82;101415.50;5090821;28;20413;-57
2023/04/25 09:13:08;;;;;;;14.23;7.35;;;;;;;9.93;60.79;101403.88;5091847;28;20027;-58
2023/04/25 09:15:47;;;;;;;12.88;6.57;;;;;;;10.01;61.20;101412.31;5091474;28;20127;-58
2023/04/25 09:18:13;;;;;;;11.45;6.40;;;;;;;10.12;59.64;101417.06;5091709;28;20043;-59
2023/04/25 09:20:43;;;;;;;12.00;7.47;;;;;;;10.30;57.06;101420.59;5091963;28;20027;-58
2023/04/25 09:23:08;;;;;;;;;;;;;;;10.59;58.20;101427.03;5091788;28;20028;-58
2023/04/25 09:25:39;;;;;;;12.27;7.53;;;;;;;10.52;55.32;101430.94;5090436;28;19953;-58
2023/04/25 09:28:06;;;;;;;13.18;6.95;;;;;;;10.57;56.38;101436.03;5091741;28;20027;-58
2023/04/25 09:30:33;;;;;;;12.52;7.00;;;;;;;10.73;54.95;101423.59;5090237;28;20028;-58
2023/04/25 09:33:06;;;;;;;12.73;6.28;;;;;;;10.66;55.55;101435.53;5091662;28;20114;-58
2023/04/25 09:35:43;;;;;;;9.02;6.25;;;;;;;10.66;55.62;101438.19;5091701;28;20032;-58
2023/04/25 09:38:13;;;;;;;10.70;6.75;;;;;;;10.78;54.33;101441.97;5091155;28;20078;-58
2023/04/25 09:40:42;;;;;;;12.13;6.68;;;;;;;10.69;52.70;101438.88;5090610;28;20046;-57
2023/04/25 09:43:26;;;;;;;9.30;6.38;;;;;;;10.85;54.75;101438.91;5091347;28;20035;-58
2023/04/25 09:45:58;;;;;;;9.95;6.05;;;;;;;10.99;54.13;101438.13;5091512;28;20016;-58
2023/04/25 09:48:25;;;;;;;10.60;6.20;;;;;;;11.08;52.16;101445.59;5091591;28;20078;-57
2023/04/25 09:51:15;;;;;;;10.45;6.15;;;;;;;11.46;54.22;101441.75;5091309;28;20020;-57
2023/04/25 09:53:43;;;;;;;12.10;6.95;;;;;;;11.55;53.61;101439.41;5091653;28;20111;-58
2023/04/25 09:56:12;;;;;;;9.98;6.70;;;;;;;11.86;53.48;101434.13;5090164;28;20020;-57
2023/04/25 09:58:39;;;;;;;9.52;6.32;;;;;;;12.04;51.87;101439.22;5091500;28;20024;-58
2023/04/25 10:01:07;;;;;;;9.68;5.65;;;;;;;12.21;52.72;101432.03;5091118;28;20085;-57
2023/04/25 10:03:34;;;;;;;12.02;6.15;;;;;;;11.85;51.73;101438.59;5091407;28;20028;-58
2023/04/25 10:06:02;;;;;;;10.43;5.50;;;;;;;11.50;50.31;101451.25;5089740;28;20066;-57
2023/04/25 10:08:37;;;;;;;9.52;5.88;;;;;;;11.43;51.94;101452.56;5091153;28;20046;-57
2023/04/25 10:11:05;;;;;;;11.38;7.05;;;;;;;11.47;52.17;101452.31;5090491;28;20416;-57
2023/04/25 10:13:34;;;;;;;7.28;6.28;;;;;;;12.06;53.59;101441.81;5089714;28;20031;-57
2023/04/25 10:16:03;;;;;;;8.68;5.38;;;;;;;12.02;47.83;101450.94;5092241;28;20067;-57
2023/04/25 10:18:29;;;;;;;8.07;6.40;;;;;;;11.70;46.88;101453.63;5093793;28;20027;-58
2023/04/25 10:21:00;;;;;;;8.77;6.20;;;;;;;11.85;47.06;101441.25;5110102;28;20020;-58
2023/04/25 10:23:26;;;;;;;9.55;5.38;;;;;;;12.21;47.99;101445.38;5094842;28;20047;-58
2023/04/25 10:25:52;;;;;;;10.48;6.18;;;;;;;12.36;46.89;101444.44;5094689;28;20031;-58
2023/04/25 10:28:21;;;;;;;8.98;5.85;;;;;;;12.39;46.08;101444.25;5093139;28;20101;-58
2023/04/25 10:31:03;;;;;;;6.18;5.57;;;;;;;13.04;45.73;101453.56;5094753;28;20423;-58
2023/04/25 10:33:42;;;;;;;5.53;4.97;;;;;;;13.25;43.54;101444.19;5094694;28;20024;-58
2023/04/25 10:36:22;;;;;;;5.60;5.10;;;;;;;13.16;44.00;101464.31;5093849;28;20021;-58
2023/04/25 10:38:50;;;;;;;7.47;4.75;;;;;;;12.66;43.25;101456.84;5093286;28;20031;-58
2023/04/25 10:41:20;;;;;;;9.13;5.25;;;;;;;12.45;45.05;101456.34;5092812;28;20501;-58
2023/04/25 10:43:46;;;;;;;;;;;;;;;12.72;46.02;101459.97;5095017;28;20407;-58
2023/04/25 10:46:18;;;;;;;7.85;5.10;;;;;;;11.96;46.51;101453.97;5093141;28;19959;-58
2023/04/25 10:48:49;;;;;;;7.55;5.65;;;;;;;11.81;47.21;101459.19;5094541;28;20038;-58
2023/04/25 10:51:26;;;;;;;8.38;5.20;;;;;;;11.71;48.05;101455.38;5093607;28;20065;-58
2023/04/25 10:53:54;;;;;;;10.15;5.72;;;;;;;11.82;49.48;101452.06;5094403;28;20032;-58
2023/04/25 10:56:21;;;;;;;11.85;6.07;;;;;;;12.35;48.86;101447.19;5092633;28;20676;-58
2023/04/25 10:58:48;;;;;;;9.02;5.90;;;;;;;12.66;47.60;101452.34;5093082;28;20028;-58
2023/04/25 11:01:14;;;;;;;8.65;5.57;;;;;;;13.16;45.97;101458.13;5093955;28;20111;-58
2023/04/25 11:03:45;;;;;;;11.00;5.47;;;;;;;13.36;45.26;101455.06;5092840;28;20062;-58
2023/04/25 11:06:27;;;;;;;10.10;5.25;;;;;;;13.12;43.76;101457.47;5092502;28;20478;-58
2023/04/25 11:08:52;;;;;;;6.88;5.00;;;;;;;12.76;45.37;101465.97;5094077;28;20039;-58
2023/04/25 11:11:18;;;;;;;7.65;4.97;;;;;;;12.28;46.02;101468.88;5093639;28;20016;-58
2023/04/25 11:13:44;;;;;;;8.30;5.47;;;;;;;12.02;47.88;101466.94;5094042;28;20089;-58
2023/04/25 11:16:10;;;;;;;9.13;5.25;;;;;;;11.70;50.15;101469.63;5093511;28;20047;-58
2023/04/25 11:18:35;;;;;;;7.28;5.53;;;;;;;11.32;52.07;101470.03;5093980;28;20107;-58
2023/04/25 11:21:02;;;;;;;10.48;6.03;;;;;;;11.21;55.93;101476.91;5093194;28;20036;-58
2023/04/25 11:23:29;;;;;;;10.50;5.45;;;;;;;10.97;56.03;101479.97;5093638;28;20391;-58